createdAt,value
2018-09-09T00:00:23.948Z,15.63
2018-09-09T00:01:23.949Z,15.67
2018-09-09T00:02:23.910Z,15.64
2018-09-09T00:03:23.898Z,15.75
2018-09-09T00:04:24.141Z,15.67
2018-09-09T00:05:24.155Z,15.7
2018-09-09T00:06:23.597Z,15.7
2018-09-09T00:07:23.841Z,15.7
2018-09-09T00:08:23.848Z,15.63
2018-09-09T00:09:23.903Z,15.64
2018-09-09T00:10:23.801Z,15.66
2018-09-09T00:11:24.052Z,15.61
2018-09-09T00:12:23.780Z,15.61
2018-09-09T00:13:23.764Z,15.6
2018-09-09T00:14:23.756Z,15.68
2018-09-09T00:15:23.996Z,15.63
2018-09-09T00:16:23.719Z,15.61
2018-09-09T00:17:23.710Z,15.6
2018-09-09T00:18:23.697Z,15.64
2018-09-09T00:19:23.944Z,15.63
2018-09-09T00:20:23.932Z,15.56
2018-09-09T00:21:23.656Z,15.61
2018-09-09T00:22:23.692Z,15.49
2018-09-09T00:23:23.365Z,15.59
2018-09-09T00:24:23.887Z,15.48
2018-09-09T00:25:23.871Z,15.61
2018-09-09T00:26:23.860Z,15.56
2018-09-09T00:27:23.839Z,15.59
2018-09-09T00:28:23.572Z,15.52
2018-09-09T00:29:23.553Z,15.57
2018-09-09T00:30:23.742Z,15.61
2018-09-09T00:31:23.531Z,15.51
2018-09-09T00:32:23.249Z,15.52
2018-09-09T00:33:23.501Z,15.52
2018-09-09T00:34:23.488Z,15.46
2018-09-09T00:35:23.733Z,15.51
2018-09-09T00:36:23.730Z,15.54
2018-09-09T00:37:23.707Z,15.52
2018-09-09T00:38:23.435Z,15.52
2018-09-09T00:39:23.419Z,15.52
2018-09-09T00:40:23.405Z,15.56
2018-09-09T00:41:23.401Z,15.51
2018-09-09T00:42:23.386Z,15.56
2018-09-09T00:43:23.633Z,15.57
2018-09-09T00:44:23.449Z,15.57
2018-09-09T00:45:23.621Z,15.48
2018-09-09T00:46:23.072Z,15.48
2018-09-09T00:47:23.317Z,15.57
2018-09-09T00:48:23.568Z,15.48
2018-09-09T00:49:23.294Z,15.49
2018-09-09T00:50:23.282Z,15.52
2018-09-09T00:51:23.523Z,15.54
2018-09-09T00:52:23.252Z,15.51
2018-09-09T00:53:23.505Z,15.51
2018-09-09T00:54:23.485Z,15.57
2018-09-09T00:55:23.229Z,15.48
2018-09-09T00:56:23.195Z,15.61
2018-09-09T00:57:22.923Z,15.59
2018-09-09T00:58:23.172Z,15.54
2018-09-09T00:59:23.162Z,15.57
2018-09-09T01:00:23.193Z,15.49
2018-09-09T01:01:23.391Z,15.66
2018-09-09T01:02:23.117Z,15.56
2018-09-09T01:03:23.370Z,15.52
2018-09-09T01:04:22.824Z,15.61
2018-09-09T01:05:23.349Z,15.59
2018-09-09T01:06:23.329Z,15.54
2018-09-09T01:07:23.317Z,15.51
2018-09-09T01:08:23.042Z,15.57
2018-09-09T01:09:23.028Z,15.57
2018-09-09T01:10:23.019Z,15.6
2018-09-09T01:11:22.997Z,15.54
2018-09-09T01:12:22.991Z,15.45
2018-09-09T01:13:23.243Z,15.61
2018-09-09T01:14:22.961Z,15.54
2018-09-09T01:15:22.959Z,15.63
2018-09-09T01:16:22.930Z,15.6
2018-09-09T01:17:22.924Z,15.61
2018-09-09T01:18:23.176Z,15.49
2018-09-09T01:19:22.903Z,15.59
2018-09-09T01:20:23.148Z,15.66
2018-09-09T01:21:22.875Z,15.51
2018-09-09T01:22:23.124Z,15.61
2018-09-09T01:23:22.843Z,15.57
2018-09-09T01:24:23.093Z,15.6
2018-09-09T01:25:22.813Z,15.52
2018-09-09T01:26:23.059Z,15.57
2018-09-09T01:27:23.057Z,15.59
2018-09-09T01:28:23.035Z,15.52
2018-09-09T01:29:22.765Z,15.56
2018-09-09T01:30:22.744Z,15.56
2018-09-09T01:31:22.993Z,15.59
2018-09-09T01:32:22.460Z,15.6
2018-09-09T01:33:22.713Z,15.68
2018-09-09T01:34:23.046Z,15.56
2018-09-09T01:35:22.680Z,15.6
2018-09-09T01:36:22.669Z,15.66
2018-09-09T01:37:22.916Z,15.56
2018-09-09T01:38:22.915Z,15.67
2018-09-09T01:39:22.628Z,15.66
2018-09-09T01:40:22.622Z,15.6
2018-09-09T01:41:22.871Z,15.63
2018-09-09T01:42:22.857Z,15.57
2018-09-09T01:43:22.849Z,15.59
2018-09-09T01:44:22.562Z,15.64
2018-09-09T01:45:22.817Z,15.64
2018-09-09T01:46:22.276Z,15.59
2018-09-09T01:47:22.521Z,15.63
2018-09-09T01:48:22.775Z,15.63
2018-09-09T01:49:22.497Z,15.6
2018-09-09T01:50:22.745Z,15.63
2018-09-09T01:51:22.478Z,15.59
2018-09-09T01:52:22.728Z,15.54
2018-09-09T01:53:22.452Z,15.66
2018-09-09T01:54:22.703Z,15.54
2018-09-09T01:55:22.423Z,15.54
2018-09-09T01:56:22.408Z,15.46
2018-09-09T01:57:22.139Z,15.61
2018-09-09T01:58:22.385Z,15.56
2018-09-09T01:59:22.370Z,15.52
2018-09-09T02:00:22.353Z,15.51
2018-09-09T02:01:22.338Z,15.52
2018-09-09T02:02:22.328Z,15.59
2018-09-09T02:03:22.316Z,15.49
2018-09-09T02:04:22.299Z,15.57
2018-09-09T02:05:22.553Z,15.52
2018-09-09T02:06:22.542Z,15.56
2018-09-09T02:07:22.525Z,15.54
2018-09-09T02:08:22.254Z,15.63
2018-09-09T02:09:22.235Z,15.49
2018-09-09T02:10:22.486Z,15.49
2018-09-09T02:11:22.489Z,15.54
2018-09-09T02:12:22.203Z,15.52
2018-09-09T02:13:22.449Z,15.52
2018-09-09T02:14:22.171Z,15.49
2018-09-09T02:15:21.891Z,15.54
2018-09-09T02:16:22.419Z,15.49
2018-09-09T02:17:22.463Z,15.49
2018-09-09T02:18:21.859Z,15.41
2018-09-09T02:19:22.104Z,15.51
2018-09-09T02:20:22.090Z,15.46
2018-09-09T02:21:21.819Z,15.46
2018-09-09T02:22:22.325Z,15.49
2018-09-09T02:23:22.051Z,15.43
2018-09-09T02:24:21.772Z,15.49
2018-09-09T02:25:21.772Z,15.43
2018-09-09T02:26:22.017Z,15.54
2018-09-09T02:27:21.738Z,15.48
2018-09-09T02:28:21.984Z,15.57
2018-09-09T02:29:21.972Z,15.51
2018-09-09T02:30:22.160Z,15.41
2018-09-09T02:31:21.953Z,15.51
2018-09-09T02:32:21.935Z,15.46
2018-09-09T02:33:21.927Z,15.46
2018-09-09T02:34:21.645Z,15.59
2018-09-09T02:35:22.160Z,15.6
2018-09-09T02:36:21.887Z,15.49
2018-09-09T02:37:22.126Z,15.48
2018-09-09T02:38:22.121Z,15.52
2018-09-09T02:39:22.109Z,15.51
2018-09-09T02:40:22.093Z,15.48
2018-09-09T02:41:22.082Z,15.49
2018-09-09T02:42:22.072Z,15.48
2018-09-09T02:43:22.057Z,15.48
2018-09-09T02:44:22.055Z,15.52
2018-09-09T02:45:22.028Z,15.56
2018-09-09T02:46:21.767Z,15.52
2018-09-09T02:47:21.749Z,15.51
2018-09-09T02:48:21.985Z,15.51
2018-09-09T02:49:21.717Z,15.49
2018-09-09T02:50:22.013Z,15.49
2018-09-09T02:51:21.950Z,15.57
2018-09-09T02:52:21.933Z,15.49
2018-09-09T02:53:21.915Z,15.51
2018-09-09T02:54:21.948Z,15.54
2018-09-09T02:55:21.631Z,15.51
2018-09-09T02:56:21.925Z,15.54
2018-09-09T02:57:21.603Z,15.52
2018-09-09T02:58:21.332Z,15.51
2018-09-09T02:59:21.837Z,15.54
2018-09-09T03:00:21.304Z,15.57
2018-09-09T03:01:21.543Z,15.59
2018-09-09T03:02:21.536Z,15.54
2018-09-09T03:03:21.790Z,15.49
2018-09-09T03:04:21.510Z,15.54
2018-09-09T03:05:21.758Z,15.54
2018-09-09T03:06:21.219Z,15.56
2018-09-09T03:07:21.468Z,15.52
2018-09-09T03:08:21.458Z,15.51
2018-09-09T03:09:21.440Z,15.56
2018-09-09T03:10:21.688Z,15.52
2018-09-09T03:11:21.428Z,15.52
2018-09-09T03:12:21.401Z,15.6
2018-09-09T03:13:21.391Z,15.51
2018-09-09T03:14:21.646Z,15.52
2018-09-09T03:15:21.366Z,15.52
2018-09-09T03:16:21.616Z,15.51
2018-09-09T03:17:21.344Z,15.49
2018-09-09T03:18:21.327Z,15.57
2018-09-09T03:19:21.574Z,15.57
2018-09-09T03:20:21.565Z,15.57
2018-09-09T03:21:21.555Z,15.52
2018-09-09T03:22:21.533Z,15.52
2018-09-09T03:23:21.260Z,15.52
2018-09-09T03:24:21.252Z,15.52
2018-09-09T03:25:21.497Z,15.43
2018-09-09T03:26:21.216Z,15.49
2018-09-09T03:27:21.204Z,15.54
2018-09-09T03:28:21.228Z,15.52
2018-09-09T03:29:21.178Z,15.46
2018-09-09T03:30:21.465Z,15.49
2018-09-09T03:31:21.188Z,15.56
2018-09-09T03:32:21.146Z,15.45
2018-09-09T03:33:21.129Z,15.54
2018-09-09T03:34:21.110Z,15.51
2018-09-09T03:35:21.368Z,15.52
2018-09-09T03:36:20.834Z,15.49
2018-09-09T03:37:21.089Z,15.6
2018-09-09T03:38:21.065Z,15.52
2018-09-09T03:39:21.050Z,15.57
2018-09-09T03:40:21.299Z,15.48
2018-09-09T03:41:21.024Z,15.48
2018-09-09T03:42:21.009Z,15.48
2018-09-09T03:43:21.001Z,15.46
2018-09-09T03:44:21.241Z,15.46
2018-09-09T03:45:20.971Z,15.41
2018-09-09T03:46:20.977Z,15.43
2018-09-09T03:47:20.958Z,15.42
2018-09-09T03:48:20.926Z,15.31
2018-09-09T03:49:20.917Z,15.36
2018-09-09T03:50:21.162Z,15.41
2018-09-09T03:51:21.153Z,15.42
2018-09-09T03:52:20.875Z,15.36
2018-09-09T03:53:21.148Z,15.28
2018-09-09T03:54:20.855Z,15.3
2018-09-09T03:55:20.838Z,15.36
2018-09-09T03:56:21.100Z,15.31
2018-09-09T03:57:21.100Z,15.26
2018-09-09T03:58:21.062Z,15.2
2018-09-09T03:59:21.049Z,15.3
2018-09-09T04:00:20.777Z,15.3
2018-09-09T04:01:21.025Z,15.26
2018-09-09T04:02:20.753Z,15.27
2018-09-09T04:03:20.728Z,15.28
2018-09-09T04:04:20.716Z,15.36
2018-09-09T04:05:20.972Z,15.19
2018-09-09T04:06:20.690Z,15.27
2018-09-09T04:07:20.948Z,15.28
2018-09-09T04:08:20.663Z,15.26
2018-09-09T04:09:20.651Z,15.24
2018-09-09T04:10:20.633Z,15.24
2018-09-09T04:11:20.630Z,15.26
2018-09-09T04:12:20.609Z,15.23
2018-09-09T04:13:20.601Z,15.26
2018-09-09T04:14:20.591Z,15.19
2018-09-09T04:15:20.570Z,15.23
2018-09-09T04:16:20.820Z,15.28
2018-09-09T04:17:20.885Z,15.19
2018-09-09T04:18:20.790Z,15.17
2018-09-09T04:19:20.521Z,15.17
2018-09-09T04:20:20.513Z,15.19
2018-09-09T04:21:20.748Z,15.12
2018-09-09T04:22:20.483Z,15.13
2018-09-09T04:23:20.464Z,15.24
2018-09-09T04:24:20.453Z,15.13
2018-09-09T04:25:20.435Z,15.11
2018-09-09T04:26:20.427Z,15.08
2018-09-09T04:27:20.728Z,15.17
2018-09-09T04:28:20.394Z,15.15
2018-09-09T04:29:20.642Z,15.09
2018-09-09T04:30:20.843Z,15.09
2018-09-09T04:31:20.089Z,15.11
2018-09-09T04:32:20.341Z,15.11
2018-09-09T04:33:20.067Z,15.09
2018-09-09T04:34:20.574Z,15.09
2018-09-09T04:35:20.307Z,15.03
2018-09-09T04:36:20.553Z,15.13
2018-09-09T04:37:20.285Z,15.08
2018-09-09T04:38:20.259Z,15.12
2018-09-09T04:39:20.248Z,15.05
2018-09-09T04:40:20.237Z,15.08
2018-09-09T04:41:20.233Z,15.11
2018-09-09T04:42:20.470Z,15.08
2018-09-09T04:43:20.201Z,15.03
2018-09-09T04:44:20.446Z,14.98
2018-09-09T04:45:20.167Z,15.09
2018-09-09T04:46:20.315Z,15.05
2018-09-09T04:47:19.879Z,15.01
2018-09-09T04:48:20.391Z,15.05
2018-09-09T04:49:20.378Z,14.95
2018-09-09T04:50:20.101Z,15.03
2018-09-09T04:51:20.087Z,15.05
2018-09-09T04:52:20.335Z,15.08
2018-09-09T04:53:20.328Z,15.06
2018-09-09T04:54:20.045Z,15.09
2018-09-09T04:55:20.320Z,15.08
2018-09-09T04:56:20.018Z,14.99
2018-09-09T04:57:19.737Z,14.99
2018-09-09T04:58:20.259Z,15.02
2018-09-09T04:59:19.980Z,15.05
2018-09-09T05:00:19.702Z,15.03
2018-09-09T05:01:20.118Z,15.06
2018-09-09T05:02:19.935Z,15.08
2018-09-09T05:03:20.200Z,15.03
2018-09-09T05:04:20.180Z,15.11
2018-09-09T05:05:19.908Z,15.09
2018-09-09T05:06:20.148Z,15.15
2018-09-09T05:07:20.156Z,15.09
2018-09-09T05:08:19.854Z,15.13
2018-09-09T05:09:19.839Z,15.19
2018-09-09T05:10:19.839Z,15.17
2018-09-09T05:11:20.089Z,15.17
2018-09-09T05:12:19.805Z,15.05
2018-09-09T05:13:20.078Z,15.12
2018-09-09T05:14:20.034Z,15.08
2018-09-09T05:15:20.023Z,15.11
2018-09-09T05:16:19.742Z,15.09
2018-09-09T05:17:19.996Z,15.09
2018-09-09T05:18:19.989Z,15.11
2018-09-09T05:19:19.718Z,15.15
2018-09-09T05:20:19.955Z,15.17
2018-09-09T05:21:19.677Z,15.13
2018-09-09T05:22:19.416Z,15.19
2018-09-09T05:23:19.660Z,15.21
2018-09-09T05:24:19.639Z,15.2
2018-09-09T05:25:19.896Z,15.24
2018-09-09T05:26:19.610Z,15.24
2018-09-09T05:27:19.885Z,15.27
2018-09-09T05:28:19.590Z,15.3
2018-09-09T05:29:19.839Z,15.28
2018-09-09T05:30:19.836Z,15.26
2018-09-09T05:31:19.555Z,15.28
2018-09-09T05:32:19.532Z,15.28
2018-09-09T05:33:19.829Z,15.28
2018-09-09T05:34:19.763Z,15.28
2018-09-09T05:35:19.487Z,15.24
2018-09-09T05:36:19.477Z,15.28
2018-09-09T05:37:19.464Z,15.28
2018-09-09T05:38:19.717Z,15.33
2018-09-09T05:39:19.707Z,15.33
2018-09-09T05:40:19.690Z,15.33
2018-09-09T05:41:19.416Z,15.39
2018-09-09T05:42:19.513Z,15.39
2018-09-09T05:43:19.388Z,15.36
2018-09-09T05:44:19.370Z,15.31
2018-09-09T05:45:19.353Z,15.36
2018-09-09T05:46:19.606Z,15.41
2018-09-09T05:47:19.328Z,15.43
2018-09-09T05:48:19.312Z,15.42
2018-09-09T05:49:19.560Z,15.49
2018-09-09T05:50:19.027Z,15.57
2018-09-09T05:51:19.010Z,15.49
2018-09-09T05:52:19.534Z,15.56
2018-09-09T05:53:19.244Z,15.49
2018-09-09T05:54:19.232Z,15.51
2018-09-09T05:55:19.491Z,15.64
2018-09-09T05:56:19.210Z,15.59
2018-09-09T05:57:19.196Z,15.64
2018-09-09T05:58:18.917Z,15.64
2018-09-09T05:59:19.639Z,15.74
2018-09-09T06:00:19.430Z,15.72
2018-09-09T06:01:19.427Z,15.72
2018-09-09T06:02:18.869Z,15.84
2018-09-09T06:03:19.113Z,15.81
2018-09-09T06:04:19.376Z,15.89
2018-09-09T06:05:19.096Z,15.84
2018-09-09T06:06:19.348Z,15.89
2018-09-09T06:07:19.078Z,15.93
2018-09-09T06:08:19.051Z,15.88
2018-09-09T06:09:19.044Z,15.99
2018-09-09T06:10:18.822Z,15.97
2018-09-09T06:11:19.014Z,16.01
2018-09-09T06:12:19.263Z,16
2018-09-09T06:13:19.253Z,16.07
2018-09-09T06:14:18.714Z,16.06
2018-09-09T06:15:18.972Z,16.06
2018-09-09T06:16:18.949Z,16.11
2018-09-09T06:17:19.197Z,16.15
2018-09-09T06:18:18.925Z,16.11
2018-09-09T06:19:19.179Z,16.12
2018-09-09T06:20:19.156Z,16.16
2018-09-09T06:21:19.154Z,16.23
2018-09-09T06:22:18.876Z,16.26
2018-09-09T06:23:18.858Z,16.26
2018-09-09T06:24:19.119Z,16.38
2018-09-09T06:25:18.857Z,16.38
2018-09-09T06:26:18.829Z,16.38
2018-09-09T06:27:18.815Z,16.34
2018-09-09T06:28:18.958Z,16.34
2018-09-09T06:29:18.520Z,16.49
2018-09-09T06:30:19.038Z,16.48
2018-09-09T06:31:18.504Z,16.53
2018-09-09T06:32:18.742Z,16.53
2018-09-09T06:33:19.007Z,16.56
2018-09-09T06:34:18.723Z,16.59
2018-09-09T06:35:19.022Z,16.63
2018-09-09T06:36:18.991Z,16.62
2018-09-09T06:37:18.710Z,16.59
2018-09-09T06:38:18.728Z,16.68
2018-09-09T06:39:18.924Z,16.67
2018-09-09T06:40:18.918Z,16.71
2018-09-09T06:41:18.643Z,16.68
2018-09-09T06:42:18.356Z,16.75
2018-09-09T06:43:18.609Z,16.74
2018-09-09T06:44:18.607Z,16.74
2018-09-09T06:45:18.860Z,16.7
2018-09-09T06:46:18.594Z,16.71
2018-09-09T06:47:18.554Z,16.71
2018-09-09T06:48:18.542Z,16.75
2018-09-09T06:49:18.801Z,16.81
2018-09-09T06:50:18.795Z,16.8
2018-09-09T06:51:18.287Z,16.67
2018-09-09T06:52:18.761Z,16.77
2018-09-09T06:53:18.746Z,16.86
2018-09-09T06:54:18.204Z,16.92
2018-09-09T06:55:18.524Z,16.95
2018-09-09T06:56:18.447Z,16.99
2018-09-09T06:57:18.700Z,16.99
2018-09-09T06:58:18.419Z,17.11
2018-09-09T06:59:18.405Z,17.11
2018-09-09T07:00:18.396Z,17.1
2018-09-09T07:01:18.381Z,17.23
2018-09-09T07:02:18.786Z,17.23
2018-09-09T07:03:18.361Z,17.33
2018-09-09T07:04:18.346Z,17.36
2018-09-09T07:05:18.074Z,17.48
2018-09-09T07:06:18.597Z,17.44
2018-09-09T07:07:18.576Z,17.53
2018-09-09T07:08:18.567Z,17.62
2018-09-09T07:09:18.290Z,17.64
2018-09-09T07:10:18.543Z,17.71
2018-09-09T07:11:18.522Z,17.73
2018-09-09T07:12:18.522Z,17.78
2018-09-09T07:13:18.241Z,17.84
2018-09-09T07:14:18.491Z,17.84
2018-09-09T07:15:18.216Z,17.87
2018-09-09T07:16:18.202Z,17.88
2018-09-09T07:17:18.764Z,18
2018-09-09T07:18:18.180Z,17.94
2018-09-09T07:19:18.771Z,17.97
2018-09-09T07:20:18.159Z,18.18
2018-09-09T07:21:17.886Z,18.15
2018-09-09T07:22:18.133Z,18.17
2018-09-09T07:23:18.389Z,18.21
2018-09-09T07:24:18.106Z,18.22
2018-09-09T07:25:18.365Z,18.24
2018-09-09T07:26:18.082Z,18.33
2018-09-09T07:27:18.354Z,18.29
2018-09-09T07:28:18.324Z,18.43
2018-09-09T07:29:18.057Z,18.42
2018-09-09T07:30:18.311Z,18.49
2018-09-09T07:31:18.462Z,18.62
2018-09-09T07:32:18.019Z,18.57
2018-09-09T07:33:17.743Z,18.54
2018-09-09T07:34:18.142Z,18.65
2018-09-09T07:35:18.259Z,18.7
2018-09-09T07:36:18.284Z,18.76
2018-09-09T07:37:18.326Z,18.74
2018-09-09T07:38:17.986Z,18.77
2018-09-09T07:39:18.215Z,18.72
2018-09-09T07:40:18.193Z,18.74
2018-09-09T07:41:17.928Z,18.8
2018-09-09T07:42:18.172Z,18.79
2018-09-09T07:43:18.167Z,18.77
2018-09-09T07:44:17.885Z,18.77
2018-09-09T07:45:17.881Z,18.82
2018-09-09T07:46:17.904Z,18.79
2018-09-09T07:47:18.131Z,18.77
2018-09-09T07:48:18.106Z,18.83
2018-09-09T07:49:17.876Z,18.8
2018-09-09T07:50:18.090Z,18.79
2018-09-09T07:51:18.076Z,18.79
2018-09-09T07:52:17.541Z,18.87
2018-09-09T07:53:18.062Z,18.87
2018-09-09T07:54:17.515Z,18.86
2018-09-09T07:55:17.761Z,18.83
2018-09-09T07:56:17.759Z,18.87
2018-09-09T07:57:18.003Z,18.9
2018-09-09T07:58:17.733Z,18.86
2018-09-09T07:59:17.991Z,18.9
2018-09-09T08:00:17.746Z,18.87
2018-09-09T08:01:17.697Z,18.95
2018-09-09T08:02:17.951Z,18.92
2018-09-09T08:03:17.682Z,18.94
2018-09-09T08:04:17.687Z,19.02
2018-09-09T08:05:17.657Z,18.94
2018-09-09T08:06:17.645Z,19.1
2018-09-09T08:07:17.651Z,19.01
2018-09-09T08:08:17.627Z,19.11
2018-09-09T08:09:17.875Z,19.11
2018-09-09T08:10:17.609Z,19.17
2018-09-09T08:11:17.333Z,19.14
2018-09-09T08:12:17.723Z,19.11
2018-09-09T08:13:17.572Z,19.11
2018-09-09T08:14:17.567Z,19.11
2018-09-09T08:15:17.818Z,19.1
2018-09-09T08:16:17.537Z,19.11
2018-09-09T08:17:17.535Z,19.18
2018-09-09T08:18:17.904Z,19.17
2018-09-09T08:19:17.512Z,19.17
2018-09-09T08:20:17.505Z,19.29
2018-09-09T08:21:17.232Z,19.23
2018-09-09T08:22:17.746Z,19.28
2018-09-09T08:23:17.482Z,19.21
2018-09-09T08:24:17.727Z,19.21
2018-09-09T08:25:17.451Z,19.32
2018-09-09T08:26:17.443Z,19.35
2018-09-09T08:27:17.169Z,19.32
2018-09-09T08:28:17.430Z,19.39
2018-09-09T08:29:17.427Z,19.4
2018-09-09T08:30:17.671Z,19.38
2018-09-09T08:31:17.326Z,19.42
2018-09-09T08:32:17.118Z,19.39
2018-09-09T08:33:17.645Z,19.38
2018-09-09T08:34:17.628Z,19.36
2018-09-09T08:35:17.614Z,19.39
2018-09-09T08:36:17.072Z,19.42
2018-09-09T08:37:17.326Z,19.38
2018-09-09T08:38:17.322Z,19.4
2018-09-09T08:39:17.572Z,19.46
2018-09-09T08:40:17.563Z,19.42
2018-09-09T08:41:17.063Z,19.48
2018-09-09T08:42:17.271Z,19.48
2018-09-09T08:43:17.070Z,19.51
2018-09-09T08:44:17.256Z,19.43
2018-09-09T08:45:17.258Z,19.53
2018-09-09T08:46:17.231Z,19.54
2018-09-09T08:47:17.498Z,19.55
2018-09-09T08:48:17.216Z,19.55
2018-09-09T08:49:17.205Z,19.63
2018-09-09T08:50:17.455Z,19.63
2018-09-09T08:51:17.445Z,19.7
2018-09-09T08:52:17.629Z,19.73
2018-09-09T08:53:16.903Z,19.72
2018-09-09T08:54:17.427Z,19.87
2018-09-09T08:55:17.417Z,19.9
2018-09-09T08:56:17.132Z,19.97
2018-09-09T08:57:17.120Z,19.95
2018-09-09T08:58:17.406Z,19.97
2018-09-09T08:59:17.106Z,20.06
2018-09-09T09:00:16.830Z,20.09
2018-09-09T09:01:17.091Z,20.1
2018-09-09T09:02:17.079Z,20.15
2018-09-09T09:03:17.063Z,20.24
2018-09-09T09:04:17.055Z,20.3
2018-09-09T09:05:17.044Z,20.23
2018-09-09T09:06:17.298Z,20.41
2018-09-09T09:07:17.047Z,20.39
2018-09-09T09:08:17.493Z,20.34
2018-09-09T09:09:17.264Z,20.43
2018-09-09T09:10:17.266Z,20.43
2018-09-09T09:11:16.724Z,20.54
2018-09-09T09:12:17.238Z,20.51
2018-09-09T09:13:16.701Z,20.49
2018-09-09T09:14:17.222Z,20.58
2018-09-09T09:15:16.963Z,20.47
2018-09-09T09:16:16.939Z,20.54
2018-09-09T09:17:17.197Z,20.49
2018-09-09T09:18:16.929Z,20.41
2018-09-09T09:19:16.919Z,20.5
2018-09-09T09:20:16.644Z,20.42
2018-09-09T09:21:16.886Z,20.5
2018-09-09T09:22:16.887Z,20.58
2018-09-09T09:23:16.871Z,20.54
2018-09-09T09:24:16.603Z,20.56
2018-09-09T09:25:16.854Z,20.61
2018-09-09T09:26:16.840Z,20.56
2018-09-09T09:27:17.140Z,20.64
2018-09-09T09:28:16.565Z,20.68
2018-09-09T09:29:16.818Z,20.8
2018-09-09T09:30:16.812Z,20.83
2018-09-09T09:31:17.069Z,20.81
2018-09-09T09:32:17.056Z,20.9
2018-09-09T09:33:17.080Z,20.83
2018-09-09T09:34:16.774Z,20.77
2018-09-09T09:35:16.763Z,20.8
2018-09-09T09:36:16.753Z,20.76
2018-09-09T09:37:17.005Z,20.76
2018-09-09T09:38:17.066Z,20.86
2018-09-09T09:39:17.143Z,20.83
2018-09-09T09:40:16.981Z,20.9
2018-09-09T09:41:16.444Z,20.98
2018-09-09T09:42:16.955Z,20.95
2018-09-09T09:43:16.947Z,20.93
2018-09-09T09:44:16.422Z,20.96
2018-09-09T09:45:16.932Z,20.93
2018-09-09T09:46:16.389Z,21.02
2018-09-09T09:47:16.590Z,21.05
2018-09-09T09:48:16.649Z,21.13
2018-09-09T09:49:16.629Z,21.21
2018-09-09T09:50:16.622Z,21.21
2018-09-09T09:51:16.607Z,21.24
2018-09-09T09:52:16.867Z,21.26
2018-09-09T09:53:16.424Z,21.32
2018-09-09T09:54:16.579Z,21.3
2018-09-09T09:55:16.726Z,21.29
2018-09-09T09:56:16.613Z,21.41
2018-09-09T09:57:16.283Z,21.36
2018-09-09T09:58:16.275Z,21.48
2018-09-09T09:59:16.797Z,21.63
2018-09-09T10:00:16.788Z,21.71
2018-09-09T10:01:16.784Z,21.66
2018-09-09T10:02:16.766Z,21.74
2018-09-09T10:03:16.497Z,21.76
2018-09-09T10:04:16.510Z,21.82
2018-09-09T10:05:16.208Z,21.83
2018-09-09T10:06:16.731Z,21.95
2018-09-09T10:07:16.723Z,22.07
2018-09-09T10:08:16.708Z,22.09
2018-09-09T10:09:16.873Z,22.1
2018-09-09T10:10:16.435Z,22.17
2018-09-09T10:11:16.169Z,22.23
2018-09-09T10:12:16.685Z,22.23
2018-09-09T10:13:16.616Z,22.22
2018-09-09T10:14:16.396Z,22.07
2018-09-09T10:15:16.980Z,22.1
2018-09-09T10:16:16.118Z,22.02
2018-09-09T10:17:16.375Z,22.07
2018-09-09T10:18:16.378Z,22.02
2018-09-09T10:19:16.364Z,22.06
2018-09-09T10:20:16.089Z,22.01
2018-09-09T10:21:16.347Z,22.09
2018-09-09T10:22:16.333Z,22.13
2018-09-09T10:23:16.597Z,22.22
2018-09-09T10:24:16.319Z,22.29
2018-09-09T10:25:16.044Z,22.23
2018-09-09T10:26:16.572Z,22.19
2018-09-09T10:27:16.024Z,22.07
2018-09-09T10:28:16.554Z,22.16
2018-09-09T10:29:16.270Z,22.2
2018-09-09T10:30:16.489Z,22.13
2018-09-09T10:31:16.461Z,22.13
2018-09-09T10:32:16.523Z,22.22
2018-09-09T10:33:16.514Z,22.04
2018-09-09T10:34:16.244Z,22.17
2018-09-09T10:35:16.501Z,22.06
2018-09-09T10:36:16.220Z,22.16
2018-09-09T10:37:16.480Z,22.2
2018-09-09T10:38:16.471Z,22.31
2018-09-09T10:39:16.213Z,22.28
2018-09-09T10:40:16.455Z,22.35
2018-09-09T10:41:16.452Z,22.43
2018-09-09T10:42:16.442Z,22.5
2018-09-09T10:43:16.165Z,22.59
2018-09-09T10:44:16.440Z,22.71
2018-09-09T10:45:16.157Z,22.72
2018-09-09T10:46:16.825Z,22.72
2018-09-09T10:47:16.234Z,22.89
2018-09-09T10:48:16.398Z,22.8
2018-09-09T10:49:16.134Z,22.84
2018-09-09T10:50:16.378Z,22.78
2018-09-09T10:51:16.395Z,22.83
2018-09-09T10:52:16.106Z,22.8
2018-09-09T10:53:16.643Z,22.78
2018-09-09T10:54:15.826Z,22.86
2018-09-09T10:55:16.359Z,22.92
2018-09-09T10:56:16.342Z,22.92
2018-09-09T10:57:16.070Z,22.93
2018-09-09T10:58:16.332Z,23.05
2018-09-09T10:59:16.320Z,23.11
2018-09-09T11:00:15.787Z,23.04
2018-09-09T11:01:16.303Z,22.99
2018-09-09T11:02:16.041Z,23.02
2018-09-09T11:03:16.027Z,23.01
2018-09-09T11:04:16.024Z,22.89
2018-09-09T11:05:16.014Z,22.87
2018-09-09T11:06:16.272Z,22.97
2018-09-09T11:07:16.011Z,22.99
2018-09-09T11:08:15.731Z,22.86
2018-09-09T11:09:16.250Z,22.87
2018-09-09T11:10:16.243Z,22.89
2018-09-09T11:11:15.976Z,22.99
2018-09-09T11:12:16.232Z,22.99
2018-09-09T11:13:16.241Z,22.99
2018-09-09T11:14:15.691Z,23.17
2018-09-09T11:15:15.948Z,23.12
2018-09-09T11:16:15.679Z,23.11
2018-09-09T11:17:15.934Z,23.15
2018-09-09T11:18:16.197Z,23.29
2018-09-09T11:19:15.670Z,23.43
2018-09-09T11:20:16.180Z,23.38
2018-09-09T11:21:15.647Z,23.61
2018-09-09T11:22:16.182Z,23.57
2018-09-09T11:23:16.161Z,23.32
2018-09-09T11:24:16.013Z,23.22
2018-09-09T11:25:15.895Z,23.08
2018-09-09T11:26:16.147Z,23.17
2018-09-09T11:27:16.136Z,23.14
2018-09-09T11:28:15.605Z,23.26
2018-09-09T11:29:15.875Z,23.32
2018-09-09T11:30:16.134Z,23.47
2018-09-09T11:31:15.863Z,23.92
2018-09-09T11:32:16.121Z,24.29
2018-09-09T11:33:15.839Z,24.34
2018-09-09T11:34:16.100Z,24.42
2018-09-09T11:35:15.834Z,24.67
2018-09-09T11:36:15.926Z,25.09
2018-09-09T11:37:16.088Z,25.47
2018-09-09T11:38:15.815Z,25.8
2018-09-09T11:39:15.845Z,25.9
2018-09-09T11:40:16.095Z,26.2
2018-09-09T11:41:15.810Z,26.55
2018-09-09T11:42:15.804Z,26.8
2018-09-09T11:43:15.541Z,26.95
2018-09-09T11:44:15.546Z,26.99
2018-09-09T11:45:15.879Z,27.17
2018-09-09T11:46:15.529Z,27.24
2018-09-09T11:47:16.056Z,27.42
2018-09-09T11:48:16.051Z,27.66
2018-09-09T11:49:15.533Z,27.88
2018-09-09T11:50:16.059Z,27.99
2018-09-09T11:51:16.063Z,28.4
2018-09-09T11:52:15.806Z,28.59
2018-09-09T11:53:16.342Z,28.5
2018-09-09T11:54:15.533Z,28.58
2018-09-09T11:55:15.535Z,28.38
2018-09-09T11:56:15.801Z,28.23
2018-09-09T11:57:15.533Z,28.26
2018-09-09T11:58:16.084Z,28.09
2018-09-09T11:59:16.084Z,28.11
2018-09-09T12:00:15.542Z,28.41
2018-09-09T12:01:15.815Z,28.32
2018-09-09T12:02:16.091Z,28.32
2018-09-09T12:03:15.553Z,28.32
2018-09-09T12:04:15.554Z,28.59
2018-09-09T12:05:16.085Z,28.72
2018-09-09T12:06:16.094Z,28.93
2018-09-09T12:07:15.826Z,29.11
2018-09-09T12:08:15.564Z,29.34
2018-09-09T12:09:15.829Z,29.23
2018-09-09T12:10:15.576Z,29.07
2018-09-09T12:11:15.840Z,28.7
2018-09-09T12:12:16.108Z,29
2018-09-09T12:13:15.579Z,29.29
2018-09-09T12:14:16.047Z,29.71
2018-09-09T12:15:16.107Z,29.93
2018-09-09T12:16:15.854Z,29.96
2018-09-09T12:17:15.852Z,29.99
2018-09-09T12:18:15.860Z,29.97
2018-09-09T12:19:16.126Z,29.89
2018-09-09T12:20:15.862Z,29.66
2018-09-09T12:21:16.138Z,29.57
2018-09-09T12:22:16.169Z,29.6
2018-09-09T12:23:15.887Z,29.52
2018-09-09T12:24:16.148Z,29.31
2018-09-09T12:25:15.623Z,29.16
2018-09-09T12:26:16.155Z,29.19
2018-09-09T12:27:16.156Z,29.23
2018-09-09T12:28:15.894Z,29.23
2018-09-09T12:29:16.180Z,28.88
2018-09-09T12:30:16.169Z,28.68
2018-09-09T12:31:16.102Z,28.62
2018-09-09T12:32:16.430Z,28.4
2018-09-09T12:33:15.642Z,28.43
2018-09-09T12:34:16.196Z,28.31
2018-09-09T12:35:16.204Z,28.22
2018-09-09T12:36:16.198Z,27.94
2018-09-09T12:37:15.960Z,27.99
2018-09-09T12:38:15.733Z,28.07
2018-09-09T12:39:16.181Z,27.77
2018-09-09T12:40:15.654Z,27.7
2018-09-09T12:41:15.930Z,27.58
2018-09-09T12:42:15.930Z,27.54
2018-09-09T12:43:15.925Z,27.39
2018-09-09T12:44:16.184Z,27.48
2018-09-09T12:45:15.928Z,27.62
2018-09-09T12:46:15.932Z,27.57
2018-09-09T12:47:16.522Z,27.24
2018-09-09T12:48:16.124Z,27.19
2018-09-09T12:49:15.919Z,27.19
2018-09-09T12:50:15.659Z,27.11
2018-09-09T12:51:16.182Z,27.13
2018-09-09T12:52:16.185Z,27.16
2018-09-09T12:53:15.650Z,27.17
2018-09-09T12:54:16.228Z,27.17